Corpus Christi International Airport

Airport
ICAO code: 
KCRP
Summary
ICAO Region: 
NAM
Territory: 
Location: 
Corpus Christi, Texas,
Elevation: 
44 ft
Coordinates: 
Aerial View: 
27° 46' 29.878" N, 97° 30' 8.194" W
Metar
Observation
KCRP 020940Z 00000KT 1/4SM R13/1600V3500FT FG SCT000 SCT250 15/15 A3012 RMK AO2 FG SCT000 T01500150
Station
Corpus Christi, Corpus Christi International Airport
Date/Time
2021-12-02 09:40:00
Wind direction
Wind speed
00 kts
Lowest cloud amount
scattered clouds
Temperature
15°C
Dew point
15°C
Humidity
100%
Weather condition
fog

Description

Corpus Christi International Airport is a public use airport located 9 km west of the central business district of Corpus Christi, in Nueces County, Texas.

Climatology

Humid “subtropical” climate (Köppen climate classification Cfa) - characterized by hot, humid summers and mild winters. Most rainfall occurs during summer and is often associated with thunderstorms and occasional tropical storms (hurricanes).

Runways

Designator Length Width Surface Rops
17/35 1853 46 ASP Yes/Yes
13/31 2288 46 ASP Yes/Yes
Airport map: 
Aerial View: 

SKYbrary Partners:

Safety knowledge contributed by: